createdAt,value
2023-05-15T00:01:47.117Z,3.23
2023-05-15T00:04:16.485Z,3.13
2023-05-15T00:06:44.975Z,2.90
2023-05-15T00:09:14.754Z,4.27
2023-05-15T00:11:43.148Z,4.07
2023-05-15T00:14:11.600Z,3.87
2023-05-15T00:16:40.127Z,3.87
2023-05-15T00:19:08.938Z,4.47
2023-05-15T00:21:37.449Z,4.17
2023-05-15T00:24:05.910Z,5.17
2023-05-15T00:26:35.895Z,5.27
2023-05-15T00:29:04.289Z,6.77
2023-05-15T00:31:33.291Z,5.47
2023-05-15T00:34:01.769Z,7.33
2023-05-15T00:36:30.185Z,5.67
2023-05-15T00:38:58.604Z,7.00
2023-05-15T00:41:28.789Z,7.37
2023-05-15T00:44:00.600Z,7.53
2023-05-15T00:46:29.865Z,7.30
2023-05-15T00:48:59.016Z,7.53
2023-05-15T00:51:28.317Z,6.67
2023-05-15T00:53:57.159Z,7.13
2023-05-15T00:56:26.533Z,9.57
2023-05-15T00:58:55.904Z,7.87
2023-05-15T01:01:26.461Z,7.77
2023-05-15T01:03:55.223Z,7.90
2023-05-15T01:06:23.660Z,8.57
2023-05-15T01:08:52.871Z,8.50
2023-05-15T01:11:21.926Z,9.33
2023-05-15T01:13:50.328Z,8.77
2023-05-15T01:16:18.757Z,11.00
2023-05-15T01:18:49.030Z,8.50
2023-05-15T01:21:32.764Z,8.63
2023-05-15T01:24:10.787Z,8.27
2023-05-15T01:26:54.802Z,7.93
2023-05-15T01:29:26.370Z,8.40
2023-05-15T01:31:57.312Z,8.30
2023-05-15T01:34:29.240Z,8.57
2023-05-15T01:36:58.668Z,8.63
2023-05-15T01:39:28.907Z,7.90
2023-05-15T01:42:01.427Z,9.63
2023-05-15T01:44:32.800Z,7.77
2023-05-15T01:47:02.144Z,7.70
2023-05-15T01:49:32.632Z,7.60
2023-05-15T01:52:03.616Z,8.70
2023-05-15T01:54:32.846Z,9.67
2023-05-15T01:57:01.474Z,9.43
2023-05-15T01:59:31.547Z,10.97
2023-05-15T02:02:00.611Z,8.90
2023-05-15T02:04:29.360Z,8.00
2023-05-15T02:06:57.899Z,8.43
2023-05-15T02:09:26.684Z,10.07
2023-05-15T02:11:56.349Z,8.77
2023-05-15T02:14:25.639Z,10.63
2023-05-15T02:16:55.643Z,8.27
2023-05-15T02:19:24.080Z,9.70
2023-05-15T02:21:52.548Z,10.00
2023-05-15T02:24:20.993Z,8.77
2023-05-15T02:26:52.965Z,9.77
2023-05-15T02:29:22.180Z,9.27
2023-05-15T02:31:54.584Z,8.27
2023-05-15T02:34:28.664Z,8.40
2023-05-15T02:36:59.904Z,7.07
2023-05-15T02:39:28.949Z,6.17
2023-05-15T02:41:58.611Z,5.13
2023-05-15T02:44:27.784Z,4.87
2023-05-15T02:46:56.430Z,4.43
2023-05-15T02:49:26.568Z,3.30
2023-05-15T02:51:55.255Z,4.60
2023-05-15T02:54:23.724Z,2.57
2023-05-15T02:56:52.148Z,4.70
2023-05-15T02:59:20.759Z,2.40
2023-05-15T03:01:49.266Z,2.23
2023-05-15T03:04:17.723Z,1.90
2023-05-15T03:06:47.649Z,2.80
2023-05-15T03:09:16.526Z,1.70
2023-05-15T03:11:44.933Z,1.77
2023-05-15T03:14:13.375Z,1.60
2023-05-15T03:16:41.784Z,1.50
2023-05-15T03:19:10.304Z,1.70
2023-05-15T03:21:38.845Z,1.70
2023-05-15T03:24:09.187Z,1.77
2023-05-15T03:26:37.603Z,1.63
2023-05-15T03:29:06.047Z,1.53
2023-05-15T03:31:34.455Z,1.50
2023-05-15T03:34:02.909Z,1.70
2023-05-15T03:36:31.554Z,2.00
2023-05-15T03:38:59.957Z,2.20
2023-05-15T03:41:29.752Z,2.43
2023-05-15T03:43:58.205Z,2.90
2023-05-15T03:46:26.768Z,3.53
2023-05-15T03:48:56.026Z,3.77
2023-05-15T03:51:24.858Z,3.93
2023-05-15T03:53:53.263Z,4.47
2023-05-15T03:56:21.694Z,7.43
2023-05-15T03:58:51.543Z,5.50
2023-05-15T04:01:19.972Z,5.57
2023-05-15T04:03:48.373Z,5.10
2023-05-15T04:06:16.779Z,6.57
2023-05-15T04:08:45.165Z,5.07
2023-05-15T04:11:13.559Z,4.87
2023-05-15T04:13:41.986Z,5.30
2023-05-15T04:16:11.758Z,4.30
2023-05-15T04:18:40.242Z,3.63
2023-05-15T04:21:08.709Z,3.63
2023-05-15T04:23:37.098Z,3.50
2023-05-15T04:26:05.575Z,3.47
2023-05-15T04:28:34.024Z,5.30
2023-05-15T04:31:02.511Z,2.57
2023-05-15T04:33:32.276Z,2.53
2023-05-15T04:36:00.808Z,2.87
2023-05-15T04:38:29.191Z,3.23
2023-05-15T04:40:57.578Z,2.23
2023-05-15T04:43:25.995Z,3.10
2023-05-15T04:45:54.531Z,2.97
2023-05-15T04:48:23.020Z,1.57
2023-05-15T04:50:52.914Z,1.60
2023-05-15T04:53:21.333Z,1.33
2023-05-15T04:55:51.342Z,1.50
2023-05-15T04:58:19.808Z,1.30
2023-05-15T05:00:48.190Z,1.63
2023-05-15T05:03:16.635Z,1.30
2023-05-15T05:05:45.356Z,1.87
2023-05-15T05:08:15.097Z,1.50
2023-05-15T05:10:43.518Z,1.50
2023-05-15T05:13:11.950Z,1.50
2023-05-15T05:15:40.417Z,1.47
2023-05-15T05:18:09.113Z,1.53
2023-05-15T05:20:37.598Z,1.93
2023-05-15T05:23:06.032Z,1.40
2023-05-15T05:25:35.851Z,2.00
2023-05-15T05:28:04.268Z,1.77
2023-05-15T05:30:32.645Z,1.90
2023-05-15T05:33:01.115Z,2.10
2023-05-15T05:35:29.694Z,1.93
2023-05-15T05:37:58.122Z,2.73
2023-05-15T05:40:26.555Z,3.47
2023-05-15T05:42:56.392Z,2.00
2023-05-15T05:45:25.209Z,8.17
2023-05-15T05:47:53.800Z,3.53
2023-05-15T05:50:22.402Z,2.87
2023-05-15T05:52:50.801Z,4.27
2023-05-15T05:55:19.284Z,5.37
2023-05-15T05:57:47.706Z,5.53
2023-05-15T06:00:18.160Z,6.97
2023-05-15T06:02:46.683Z,5.83
2023-05-15T06:05:15.503Z,6.90
2023-05-15T06:07:44.307Z,6.80
2023-05-15T06:10:13.924Z,6.30
2023-05-15T06:12:42.453Z,6.47
2023-05-15T06:15:11.204Z,5.73
2023-05-15T06:17:41.156Z,6.80
2023-05-15T06:20:10.257Z,5.37
2023-05-15T06:22:38.956Z,4.77
2023-05-15T06:25:07.952Z,4.77
2023-05-15T06:27:36.367Z,4.10
2023-05-15T06:30:05.008Z,4.07
2023-05-15T06:32:34.612Z,4.10
2023-05-15T06:35:04.687Z,3.63
2023-05-15T06:37:33.125Z,3.50
2023-05-15T06:40:01.679Z,2.97
2023-05-15T06:42:30.148Z,2.50
2023-05-15T06:44:59.504Z,2.47
2023-05-15T06:47:28.014Z,1.90
2023-05-15T06:49:56.590Z,1.67
2023-05-15T06:52:26.527Z,1.60
2023-05-15T06:54:54.921Z,1.50
2023-05-15T06:57:23.420Z,1.70
2023-05-15T06:59:51.997Z,1.43
2023-05-15T07:02:20.444Z,1.50
2023-05-15T07:04:48.937Z,1.30
2023-05-15T07:07:18.330Z,1.63
2023-05-15T07:09:50.306Z,1.80
2023-05-15T07:12:18.751Z,1.50
2023-05-15T07:14:47.158Z,1.38
2023-05-15T07:17:15.633Z,2.17
2023-05-15T07:19:44.629Z,1.33
2023-05-15T07:22:13.043Z,3.78
2023-05-15T07:24:41.482Z,2.08
2023-05-15T07:27:11.404Z,1.83
2023-05-15T07:29:39.811Z,2.63
2023-05-15T07:32:08.570Z,1.92
2023-05-15T07:34:36.987Z,3.63
2023-05-15T07:37:05.484Z,2.83
2023-05-15T07:39:34.093Z,1.88
2023-05-15T07:42:02.531Z,2.42
2023-05-15T07:44:32.435Z,3.90
2023-05-15T07:47:00.903Z,2.15
2023-05-15T07:49:29.669Z,2.42
2023-05-15T07:51:58.071Z,2.20
2023-05-15T07:54:26.948Z,3.38
2023-05-15T07:56:55.348Z,5.22
2023-05-15T07:59:23.804Z,5.22
2023-05-15T08:01:53.694Z,4.63
2023-05-15T08:04:22.141Z,2.92
2023-05-15T08:06:50.613Z,2.85
2023-05-15T08:09:19.482Z,2.83
2023-05-15T08:11:47.898Z,3.55
2023-05-15T08:14:16.465Z,2.63
2023-05-15T08:16:44.952Z,1.98
2023-05-15T08:19:14.798Z,2.90
2023-05-15T08:21:43.240Z,2.15
2023-05-15T08:24:11.783Z,1.95
2023-05-15T08:26:40.290Z,1.80
2023-05-15T08:29:08.653Z,1.90
2023-05-15T08:31:37.158Z,2.22
2023-05-15T08:34:05.655Z,2.20
2023-05-15T08:39:07.224Z,3.63
2023-05-15T08:41:40.926Z,4.75
2023-05-15T08:44:11.650Z,4.57
2023-05-15T08:46:40.562Z,5.35
2023-05-15T08:49:13.553Z,5.18
2023-05-15T08:51:43.440Z,7.90
2023-05-15T08:54:12.096Z,7.72
2023-05-15T08:56:40.756Z,9.75
2023-05-15T08:59:09.531Z,10.88
2023-05-15T09:01:38.181Z,11.80
2023-05-15T09:04:06.843Z,14.65
2023-05-15T09:06:35.662Z,15.45
2023-05-15T09:09:06.665Z,16.00
2023-05-15T09:11:35.301Z,15.38
2023-05-15T09:14:04.740Z,17.40
2023-05-15T09:16:33.209Z,20.10
2023-05-15T09:19:02.060Z,22.55
2023-05-15T09:21:32.285Z,23.75
2023-05-15T09:24:15.679Z,26.55
2023-05-15T09:26:45.866Z,24.02
2023-05-15T09:29:18.650Z,28.88
2023-05-15T09:31:56.769Z,26.88
2023-05-15T09:34:31.036Z,28.70
2023-05-15T09:36:59.585Z,35.17
2023-05-15T09:39:28.007Z,30.02
2023-05-15T09:41:56.914Z,30.15
2023-05-15T09:44:27.330Z,34.85
2023-05-15T09:46:57.993Z,34.10
2023-05-15T09:49:26.856Z,33.17
2023-05-15T09:51:55.527Z,35.92
2023-05-15T09:54:24.959Z,36.28
2023-05-15T09:56:53.448Z,39.28
2023-05-15T09:59:22.460Z,31.98
2023-05-15T10:01:51.648Z,33.42
2023-05-15T10:04:21.520Z,32.35
2023-05-15T10:06:50.499Z,34.78
2023-05-15T10:09:18.947Z,33.40
2023-05-15T10:11:52.974Z,32.50
2023-05-15T10:14:21.895Z,37.28
2023-05-15T10:16:50.333Z,37.05
2023-05-15T10:19:21.844Z,34.47
2023-05-15T10:21:52.393Z,35.60
2023-05-15T10:24:22.411Z,38.00
2023-05-15T10:26:51.058Z,39.80
2023-05-15T10:29:21.328Z,41.58
2023-05-15T10:31:50.494Z,43.80
2023-05-15T10:34:19.178Z,47.25
2023-05-15T10:36:48.041Z,50.63
2023-05-15T10:39:18.442Z,51.28
2023-05-15T10:41:47.129Z,50.28
2023-05-15T10:44:16.505Z,53.35
2023-05-15T10:46:45.158Z,56.58
2023-05-15T10:49:13.827Z,60.47
2023-05-15T10:51:44.192Z,61.13
2023-05-15T10:54:12.728Z,58.40
2023-05-15T10:56:44.017Z,62.78
2023-05-15T10:59:13.312Z,57.47
2023-05-15T11:01:42.465Z,54.90
2023-05-15T11:04:11.750Z,56.72
2023-05-15T11:06:40.572Z,53.05
2023-05-15T11:09:28.038Z,53.72
2023-05-15T11:11:58.439Z,53.33
2023-05-15T11:14:27.588Z,54.05
2023-05-15T11:16:59.828Z,58.25
2023-05-15T11:19:34.764Z,57.95
2023-05-15T11:22:03.799Z,57.22
2023-05-15T11:24:32.622Z,59.47
2023-05-15T11:27:06.462Z,61.92
2023-05-15T11:29:36.241Z,62.33
2023-05-15T11:32:04.698Z,60.45
2023-05-15T11:34:33.281Z,57.90
2023-05-15T11:37:01.907Z,58.75
2023-05-15T11:39:30.588Z,59.95
2023-05-15T11:42:00.405Z,58.58
2023-05-15T11:44:32.043Z,68.47
2023-05-15T11:47:00.598Z,65.68
2023-05-15T11:49:29.179Z,65.72
2023-05-15T11:51:57.800Z,70.30
2023-05-15T11:54:26.524Z,67.13
2023-05-15T11:56:58.920Z,65.22
2023-05-15T11:59:28.953Z,69.68
2023-05-15T12:01:59.136Z,69.50
2023-05-15T12:04:27.669Z,68.63
2023-05-15T12:06:56.546Z,71.10
2023-05-15T12:09:27.440Z,69.78
2023-05-15T12:11:56.340Z,67.53
2023-05-15T12:14:34.048Z,68.90
2023-05-15T12:17:04.392Z,74.38
2023-05-15T12:19:33.373Z,77.78
2023-05-15T12:22:02.004Z,74.55
2023-05-15T12:24:30.817Z,70.72
2023-05-15T12:26:59.696Z,72.70
2023-05-15T12:29:28.561Z,68.70
2023-05-15T12:31:57.223Z,72.63
2023-05-15T12:34:27.887Z,73.97
2023-05-15T12:36:56.339Z,78.47
2023-05-15T12:39:24.915Z,78.22
2023-05-15T12:41:54.309Z,74.57
2023-05-15T12:44:22.796Z,75.53
2023-05-15T12:46:51.548Z,78.40
2023-05-15T12:49:23.063Z,77.95
2023-05-15T12:51:53.030Z,81.75
2023-05-15T12:54:21.891Z,74.20
2023-05-15T12:56:50.656Z,78.95
2023-05-15T12:59:19.060Z,78.65
2023-05-15T13:01:47.603Z,76.85
2023-05-15T13:04:17.918Z,61.88
2023-05-15T13:06:48.072Z,74.28
2023-05-15T13:09:23.054Z,80.10
2023-05-15T13:11:51.505Z,83.70
2023-05-15T13:14:21.105Z,81.57
2023-05-15T13:16:49.564Z,80.80
2023-05-15T13:19:18.082Z,84.05
2023-05-15T13:21:46.665Z,81.25
2023-05-15T13:24:15.091Z,77.43
2023-05-15T13:26:44.885Z,85.18
2023-05-15T13:29:13.284Z,87.65
2023-05-15T13:31:41.813Z,80.25
2023-05-15T13:34:10.288Z,85.72
2023-05-15T13:36:38.979Z,81.75
2023-05-15T13:39:07.790Z,98.10
2023-05-15T13:41:37.344Z,89.53
2023-05-15T13:44:07.291Z,86.03
2023-05-15T13:46:35.740Z,82.05
2023-05-15T13:49:05.740Z,86.60
2023-05-15T13:51:34.262Z,86.68
2023-05-15T13:54:02.690Z,85.30
2023-05-15T13:56:31.251Z,88.35
2023-05-15T13:58:59.657Z,85.53
2023-05-15T14:01:29.596Z,85.30
2023-05-15T14:03:58.105Z,81.65
2023-05-15T14:06:27.579Z,87.20
2023-05-15T14:08:56.169Z,85.97
2023-05-15T14:11:24.595Z,86.38
2023-05-15T14:13:53.016Z,87.00
2023-05-15T14:16:21.452Z,90.50
2023-05-15T14:18:51.565Z,83.55
2023-05-15T14:21:20.084Z,83.82
2023-05-15T14:23:48.510Z,85.97
2023-05-15T14:26:16.915Z,85.88
2023-05-15T14:28:45.997Z,81.30
2023-05-15T14:31:14.470Z,84.35
2023-05-15T14:33:42.929Z,82.60
2023-05-15T14:36:12.775Z,83.80
2023-05-15T14:38:42.372Z,87.20
2023-05-15T14:41:10.814Z,83.45
2023-05-15T14:43:39.238Z,86.20
2023-05-15T14:46:10.548Z,87.18
2023-05-15T14:48:39.984Z,84.63
2023-05-15T14:51:08.518Z,86.68
2023-05-15T14:53:38.329Z,83.22
2023-05-15T14:56:06.998Z,83.15
2023-05-15T14:58:35.577Z,83.63
2023-05-15T15:01:04.646Z,85.80
2023-05-15T15:03:34.172Z,80.40
2023-05-15T15:06:02.936Z,77.60
2023-05-15T15:08:31.385Z,73.93
2023-05-15T15:11:01.715Z,68.97
2023-05-15T15:13:31.085Z,69.05
2023-05-15T15:15:59.526Z,66.18
2023-05-15T15:18:28.101Z,69.43
2023-05-15T15:20:56.607Z,73.50
2023-05-15T15:23:25.043Z,75.95
2023-05-15T15:25:53.442Z,78.03
2023-05-15T15:28:23.240Z,73.32
2023-05-15T15:30:51.757Z,71.32
2023-05-15T15:33:20.215Z,72.88
2023-05-15T15:35:48.681Z,64.55
2023-05-15T15:38:17.116Z,58.55
2023-05-15T15:40:45.602Z,61.30
2023-05-15T15:43:14.310Z,62.50
2023-05-15T15:45:44.228Z,59.95
2023-05-15T15:48:12.926Z,62.83
2023-05-15T15:50:41.440Z,68.10
2023-05-15T15:53:09.868Z,64.13
2023-05-15T15:55:38.265Z,59.67
2023-05-15T15:58:06.694Z,58.45
2023-05-15T16:00:35.165Z,57.38
2023-05-15T16:03:05.183Z,53.80
2023-05-15T16:05:33.654Z,53.53
2023-05-15T16:08:02.052Z,56.35
2023-05-15T16:10:30.730Z,51.90
2023-05-15T16:12:59.390Z,53.38
2023-05-15T16:15:27.836Z,49.75
2023-05-15T16:17:56.907Z,47.10
2023-05-15T16:20:26.965Z,46.25
2023-05-15T16:22:55.455Z,42.60
2023-05-15T16:25:23.842Z,38.53
2023-05-15T16:27:52.248Z,39.80
2023-05-15T16:30:20.695Z,37.72
2023-05-15T16:32:50.404Z,36.53
2023-05-15T16:35:20.644Z,35.45
2023-05-15T16:37:50.465Z,35.97
2023-05-15T16:40:18.975Z,34.70
2023-05-15T16:42:47.391Z,37.92
2023-05-15T16:45:16.402Z,37.25
2023-05-15T16:47:45.792Z,35.50
2023-05-15T16:50:14.320Z,34.25
2023-05-15T16:52:45.886Z,33.88
2023-05-15T16:55:16.954Z,23.23
2023-05-15T16:57:45.721Z,18.83
2023-05-15T17:00:15.053Z,13.00
2023-05-15T17:02:43.868Z,9.90
2023-05-15T17:05:13.975Z,8.52
2023-05-15T17:07:43.180Z,4.78
2023-05-15T17:10:12.451Z,5.53
2023-05-15T17:12:42.456Z,3.95
2023-05-15T17:15:11.190Z,3.17
2023-05-15T17:17:39.662Z,2.20
2023-05-15T17:20:08.569Z,1.90
2023-05-15T17:22:36.996Z,1.65
2023-05-15T17:25:07.078Z,3.28
2023-05-15T17:27:39.766Z,2.00
2023-05-15T17:30:10.318Z,1.83
2023-05-15T17:32:39.560Z,1.85
2023-05-15T17:35:08.555Z,1.80
2023-05-15T17:37:37.684Z,1.70
2023-05-15T17:40:06.569Z,1.73
2023-05-15T17:42:36.026Z,1.63
2023-05-15T17:45:04.554Z,1.70
2023-05-15T17:47:34.612Z,1.45
2023-05-15T17:50:03.124Z,1.70
2023-05-15T17:52:31.545Z,1.50
2023-05-15T17:54:59.947Z,1.60
2023-05-15T17:57:28.351Z,1.52
2023-05-15T17:59:56.821Z,1.50
2023-05-15T18:02:25.232Z,1.58
2023-05-15T18:04:55.046Z,1.40
2023-05-15T18:07:23.468Z,1.65
2023-05-15T18:09:51.886Z,1.88
2023-05-15T18:12:20.680Z,1.65
2023-05-15T18:14:49.119Z,1.40
2023-05-15T18:17:17.692Z,2.20
2023-05-15T18:19:46.262Z,1.63
2023-05-15T18:22:16.391Z,1.50
2023-05-15T18:24:44.824Z,1.75
2023-05-15T18:27:13.383Z,1.40
2023-05-15T18:29:43.841Z,1.60
2023-05-15T18:32:13.329Z,1.60
2023-05-15T18:34:41.767Z,1.52
2023-05-15T18:37:10.211Z,1.33
2023-05-15T18:39:40.173Z,2.58
2023-05-15T18:42:08.932Z,1.42
2023-05-15T18:44:37.350Z,1.92
2023-05-15T18:47:06.231Z,1.80
2023-05-15T18:49:34.946Z,1.77
2023-05-15T18:52:03.433Z,2.25
2023-05-15T18:54:31.884Z,1.70
2023-05-15T18:57:01.693Z,1.95
2023-05-15T18:59:30.520Z,1.95
2023-05-15T19:01:59.026Z,1.80
2023-05-15T19:04:27.489Z,2.20
2023-05-15T19:06:55.973Z,1.80
2023-05-15T19:09:24.431Z,1.48
2023-05-15T19:11:52.896Z,1.70
2023-05-15T19:14:22.740Z,1.98
2023-05-15T19:16:51.190Z,2.03
2023-05-15T19:19:19.754Z,2.85
2023-05-15T19:21:50.487Z,1.52
2023-05-15T19:24:18.915Z,1.70
2023-05-15T19:26:47.376Z,1.40
2023-05-15T19:29:16.098Z,1.85
2023-05-15T19:31:46.180Z,1.83
2023-05-15T19:34:14.976Z,2.13
2023-05-15T19:36:43.439Z,1.70
2023-05-15T19:39:12.240Z,1.70
2023-05-15T19:41:40.652Z,1.60
2023-05-15T19:44:09.096Z,1.70
2023-05-15T19:46:37.908Z,1.77
2023-05-15T19:49:07.865Z,1.90
2023-05-15T19:51:36.306Z,3.92
2023-05-15T19:54:04.721Z,2.70
2023-05-15T19:56:33.155Z,2.28
2023-05-15T19:59:01.614Z,2.25
2023-05-15T20:01:30.168Z,3.05
2023-05-15T20:03:58.796Z,3.63
2023-05-15T20:06:28.817Z,3.05
2023-05-15T20:08:57.244Z,2.10
2023-05-15T20:11:25.864Z,2.50
2023-05-15T20:13:54.583Z,2.60
2023-05-15T20:16:23.062Z,2.50
2023-05-15T20:18:55.380Z,2.70
2023-05-15T20:21:23.858Z,2.35
2023-05-15T20:23:53.703Z,2.15
2023-05-15T20:26:22.489Z,1.90
2023-05-15T20:28:50.987Z,2.22
2023-05-15T20:31:19.483Z,2.17
2023-05-15T20:33:47.978Z,1.98
2023-05-15T20:36:16.750Z,1.70
2023-05-15T20:38:45.480Z,2.42
2023-05-15T20:41:16.517Z,2.45
2023-05-15T20:43:44.940Z,3.60
2023-05-15T20:46:13.385Z,1.92
2023-05-15T20:48:41.907Z,2.05
2023-05-15T20:51:10.478Z,2.95
2023-05-15T20:53:38.893Z,2.08
2023-05-15T20:56:07.484Z,1.80
2023-05-15T20:58:37.297Z,2.03
2023-05-15T21:01:05.806Z,1.70
2023-05-15T21:03:34.303Z,1.77
2023-05-15T21:06:02.790Z,1.73
2023-05-15T21:08:31.280Z,2.65
2023-05-15T21:10:59.764Z,1.75
2023-05-15T21:13:28.235Z,1.73
2023-05-15T21:15:58.029Z,1.60
2023-05-15T21:18:26.568Z,1.63
2023-05-15T21:20:55.017Z,1.92
2023-05-15T21:23:23.468Z,1.80
2023-05-15T21:25:51.894Z,1.80
2023-05-15T21:28:20.380Z,1.60
2023-05-15T21:30:48.817Z,1.73
2023-05-15T21:33:18.646Z,2.80
2023-05-15T21:35:47.501Z,1.70
2023-05-15T21:38:16.077Z,1.60
2023-05-15T21:40:44.829Z,2.35
2023-05-15T21:43:13.248Z,1.80
2023-05-15T21:45:41.633Z,2.60
2023-05-15T21:48:10.058Z,3.03
2023-05-15T21:50:39.930Z,9.20
2023-05-15T21:53:08.364Z,14.45
2023-05-15T21:55:38.854Z,10.00
2023-05-15T21:58:07.284Z,5.65
2023-05-15T22:00:35.673Z,8.30
2023-05-15T22:03:04.225Z,15.75
2023-05-15T22:05:32.749Z,18.95
2023-05-15T22:08:02.643Z,15.05
2023-05-15T22:10:31.577Z,19.38
2023-05-15T22:13:02.650Z,31.02
2023-05-15T22:15:31.133Z,29.88
2023-05-15T22:18:00.469Z,32.97
2023-05-15T22:20:29.514Z,40.42
2023-05-15T22:22:57.924Z,39.17
2023-05-15T22:25:27.908Z,38.33
2023-05-15T22:27:56.569Z,19.38
2023-05-15T22:30:25.155Z,58.45
2023-05-15T22:32:53.835Z,79.10
2023-05-15T22:35:22.319Z,58.53
2023-05-15T22:37:50.732Z,91.10
2023-05-15T22:40:19.190Z,72.90
2023-05-15T22:42:50.240Z,72.07
2023-05-15T22:45:19.102Z,53.95
2023-05-15T22:47:47.656Z,73.45
2023-05-15T22:50:16.406Z,72.18
2023-05-15T22:52:44.833Z,59.40
2023-05-15T22:55:13.808Z,75.30
2023-05-15T22:57:42.214Z,68.70
2023-05-15T23:00:12.798Z,77.13
2023-05-15T23:02:43.478Z,82.60
2023-05-15T23:05:13.291Z,104.78
2023-05-15T23:07:41.749Z,61.03
2023-05-15T23:10:10.654Z,79.72
2023-05-15T23:12:39.062Z,84.55
2023-05-15T23:15:07.851Z,78.38
2023-05-15T23:17:37.722Z,100.35
2023-05-15T23:20:08.204Z,78.95
2023-05-15T23:22:36.608Z,81.05
2023-05-15T23:25:05.232Z,89.97
2023-05-15T23:27:33.643Z,95.85
2023-05-15T23:30:02.086Z,81.93
2023-05-15T23:32:30.570Z,119.25
2023-05-15T23:35:00.416Z,94.45
2023-05-15T23:37:28.845Z,91.70
2023-05-15T23:39:57.282Z,103.63
2023-05-15T23:42:25.693Z,88.43
2023-05-15T23:44:54.130Z,86.80
2023-05-15T23:47:22.536Z,78.45
2023-05-15T23:49:50.994Z,116.13
2023-05-15T23:52:20.767Z,103.65
2023-05-15T23:54:49.234Z,86.10
2023-05-15T23:57:18.140Z,73.82
2023-05-15T23:59:46.564Z,78.35
